createdAt,value
2022-10-19T00:01:28.637Z,13.64
2022-10-19T00:03:56.054Z,13.89
2022-10-19T00:06:26.198Z,13.74
2022-10-19T00:08:54.375Z,13.74
2022-10-19T00:11:21.334Z,13.48
2022-10-19T00:13:47.804Z,13.67
2022-10-19T00:16:16.215Z,13.64
2022-10-19T00:18:43.663Z,13.64
2022-10-19T00:21:11.983Z,13.33
2022-10-19T00:23:38.521Z,12.77
2022-10-19T00:26:05.039Z,13.22
2022-10-19T00:28:31.494Z,13.33
2022-10-19T00:31:03.037Z,13.28
2022-10-19T00:33:29.412Z,13.25
2022-10-19T00:35:55.832Z,13.00
2022-10-19T00:38:22.287Z,12.76
2022-10-19T00:40:49.312Z,12.75
2022-10-19T00:43:16.874Z,13.13
2022-10-19T00:45:43.270Z,13.16
2022-10-19T00:48:13.191Z,13.24
2022-10-19T00:50:40.776Z,13.12
2022-10-19T00:53:07.198Z,12.54
2022-10-19T00:55:34.552Z,13.40
2022-10-19T00:58:03.285Z,13.45
2022-10-19T01:00:29.848Z,13.35
2022-10-19T01:02:58.763Z,13.23
2022-10-19T01:05:26.382Z,13.37
2022-10-19T01:07:53.842Z,13.13
2022-10-19T01:10:30.291Z,12.46
2022-10-19T01:13:21.305Z,12.71
2022-10-19T01:15:59.520Z,12.93
2022-10-19T01:18:48.121Z,12.88
2022-10-19T01:21:21.622Z,12.84
2022-10-19T01:24:01.722Z,12.43
2022-10-19T01:26:47.529Z,12.82
2022-10-19T01:29:44.920Z,12.88
2022-10-19T01:32:28.983Z,12.76
2022-10-19T01:35:06.668Z,12.78
2022-10-19T01:37:51.860Z,13.05
2022-10-19T01:40:30.580Z,13.03
2022-10-19T01:43:37.747Z,12.93
2022-10-19T01:46:31.559Z,12.51
2022-10-19T01:49:09.260Z,12.47
2022-10-19T01:51:42.336Z,12.60
2022-10-19T01:54:12.733Z,12.42
2022-10-19T01:56:42.577Z,12.63
2022-10-19T01:59:11.836Z,12.48
2022-10-19T02:01:43.833Z,12.93
2022-10-19T02:04:12.980Z,12.86
2022-10-19T02:06:40.851Z,12.93
2022-10-19T02:09:07.409Z,12.76
2022-10-19T02:11:35.491Z,12.85
2022-10-19T02:14:09.518Z,12.71
2022-10-19T02:16:45.797Z,12.53
2022-10-19T02:19:15.494Z,12.43
2022-10-19T02:21:42.007Z,12.49
2022-10-19T02:24:08.470Z,11.86
2022-10-19T02:26:35.023Z,12.48
2022-10-19T02:29:01.580Z,11.78
2022-10-19T02:31:27.958Z,12.02
2022-10-19T02:33:54.707Z,12.19
2022-10-19T02:36:21.479Z,12.12
2022-10-19T02:38:48.024Z,12.14
2022-10-19T02:41:24.383Z,11.72
2022-10-19T02:43:58.900Z,12.14
2022-10-19T02:46:35.295Z,12.21
2022-10-19T02:49:04.440Z,12.17
2022-10-19T02:51:33.749Z,12.29
2022-10-19T02:54:02.712Z,11.74
2022-10-19T02:56:32.243Z,12.32
2022-10-19T02:58:58.595Z,11.62
2022-10-19T03:01:25.099Z,12.06
2022-10-19T03:03:51.433Z,11.56
2022-10-19T03:06:17.750Z,11.94
2022-10-19T03:08:44.382Z,11.83
2022-10-19T03:11:10.727Z,11.76
2022-10-19T03:13:37.149Z,11.74
2022-10-19T03:16:12.224Z,11.63
2022-10-19T03:18:38.687Z,11.59
2022-10-19T03:21:08.460Z,11.79
2022-10-19T03:23:35.502Z,11.88
2022-10-19T03:26:02.377Z,12.01
2022-10-19T03:28:28.962Z,11.93
2022-10-19T03:30:55.807Z,11.99
2022-10-19T03:33:22.697Z,11.61
2022-10-19T03:35:49.201Z,12.13
2022-10-19T03:38:15.878Z,12.05
2022-10-19T03:40:42.492Z,12.14
2022-10-19T03:43:08.836Z,11.37
2022-10-19T03:45:35.198Z,11.69
2022-10-19T03:48:01.587Z,11.69
2022-10-19T03:50:27.946Z,11.59
2022-10-19T03:52:55.437Z,10.54
2022-10-19T03:55:21.790Z,11.01
2022-10-19T03:57:48.118Z,11.50
2022-10-19T04:00:14.841Z,11.37
2022-10-19T04:02:41.153Z,11.71
2022-10-19T04:05:07.886Z,11.76
2022-10-19T04:07:34.491Z,11.57
2022-10-19T04:10:01.043Z,12.25
2022-10-19T04:12:27.356Z,12.54
2022-10-19T04:14:57.407Z,12.36
2022-10-19T04:17:24.849Z,12.64
2022-10-19T04:19:51.184Z,12.56
2022-10-19T04:22:17.544Z,12.05
2022-10-19T04:24:43.886Z,12.56
2022-10-19T04:27:10.196Z,12.75
2022-10-19T04:29:36.599Z,12.66
2022-10-19T04:32:02.939Z,12.78
2022-10-19T04:34:29.264Z,12.69
2022-10-19T04:36:59.121Z,12.81
2022-10-19T04:39:25.433Z,12.54
2022-10-19T04:41:51.735Z,12.80
2022-10-19T04:44:18.099Z,12.80
2022-10-19T04:46:44.452Z,13.08
2022-10-19T04:49:10.776Z,12.23
2022-10-19T04:51:37.111Z,12.37
2022-10-19T04:54:03.834Z,12.97
2022-10-19T04:56:32.141Z,12.88
2022-10-19T04:59:00.079Z,12.43
2022-10-19T05:01:28.525Z,13.16
2022-10-19T05:04:00.769Z,12.87
2022-10-19T05:06:27.516Z,12.94
2022-10-19T05:08:53.859Z,12.44
2022-10-19T05:11:20.862Z,13.12
2022-10-19T05:13:47.619Z,13.07
2022-10-19T05:16:17.720Z,13.15
2022-10-19T05:18:50.883Z,13.02
2022-10-19T05:21:18.168Z,13.04
2022-10-19T05:23:44.865Z,12.76
2022-10-19T05:26:14.466Z,13.01
2022-10-19T05:28:41.182Z,12.79
2022-10-19T05:31:12.864Z,13.16
2022-10-19T05:33:40.152Z,13.15
2022-10-19T05:36:29.489Z,13.28
2022-10-19T05:38:57.731Z,13.18
2022-10-19T05:41:26.230Z,13.09
2022-10-19T05:43:57.677Z,13.00
2022-10-19T05:46:24.970Z,12.75
2022-10-19T05:48:51.556Z,12.67
2022-10-19T05:51:20.555Z,12.86
2022-10-19T05:53:47.156Z,12.67
2022-10-19T05:56:17.862Z,12.55
2022-10-19T05:58:44.566Z,12.43
2022-10-19T06:01:11.055Z,12.47
2022-10-19T06:03:37.381Z,12.17
2022-10-19T06:06:06.214Z,12.59
2022-10-19T06:08:33.672Z,12.58
2022-10-19T06:11:09.932Z,12.63
2022-10-19T06:13:37.191Z,11.98
2022-10-19T06:16:04.537Z,12.29
2022-10-19T06:18:31.005Z,12.57
2022-10-19T06:21:02.371Z,12.43
2022-10-19T06:23:28.714Z,12.48
2022-10-19T06:25:55.256Z,12.50
2022-10-19T06:28:21.558Z,12.48
2022-10-19T06:30:47.906Z,12.59
2022-10-19T06:33:14.442Z,12.54
2022-10-19T06:35:42.897Z,12.69
2022-10-19T06:38:09.717Z,11.92
2022-10-19T06:40:36.226Z,12.87
2022-10-19T06:43:02.584Z,12.84
2022-10-19T06:45:32.270Z,12.71
2022-10-19T06:48:05.020Z,12.69
2022-10-19T06:50:34.217Z,12.91
2022-10-19T06:53:00.599Z,12.83
2022-10-19T06:55:27.016Z,13.03
2022-10-19T06:57:53.384Z,13.04
2022-10-19T07:00:19.735Z,12.74
2022-10-19T07:02:46.082Z,13.11
2022-10-19T07:05:12.399Z,12.43
2022-10-19T07:07:38.860Z,13.04
2022-10-19T07:10:05.722Z,13.21
2022-10-19T07:12:32.144Z,13.14
2022-10-19T07:14:58.455Z,13.24
2022-10-19T07:17:24.921Z,13.30
2022-10-19T07:19:51.259Z,13.17
2022-10-19T07:22:22.174Z,13.39
2022-10-19T07:24:52.218Z,13.06
2022-10-19T07:27:18.653Z,13.51
2022-10-19T07:29:45.132Z,13.41
2022-10-19T07:32:11.444Z,12.98
2022-10-19T07:34:37.771Z,13.30
2022-10-19T07:37:04.131Z,13.62
2022-10-19T07:39:30.623Z,13.58
2022-10-19T07:41:56.981Z,13.47
2022-10-19T07:44:23.453Z,13.46
2022-10-19T07:46:50.289Z,13.62
2022-10-19T07:49:18.898Z,13.94
2022-10-19T07:51:46.732Z,13.30
2022-10-19T07:54:13.638Z,14.03
2022-10-19T07:56:40.125Z,13.43
2022-10-19T07:59:06.579Z,13.70
2022-10-19T08:01:37.903Z,14.10
2022-10-19T08:06:50.640Z,14.00
2022-10-19T08:09:40.043Z,13.28
2022-10-19T08:12:04.295Z,13.61
2022-10-19T08:14:30.758Z,13.82
2022-10-19T08:16:57.416Z,14.00
2022-10-19T08:19:24.208Z,13.96
2022-10-19T08:21:50.888Z,14.03
2022-10-19T08:24:19.751Z,13.31
2022-10-19T08:26:46.783Z,14.15
2022-10-19T08:29:16.265Z,14.13
2022-10-19T08:31:44.061Z,14.21
2022-10-19T08:34:11.327Z,14.36
2022-10-19T08:36:37.716Z,14.34
2022-10-19T08:39:06.096Z,14.32
2022-10-19T08:41:44.920Z,14.57
2022-10-19T08:44:33.059Z,14.62
2022-10-19T08:47:12.512Z,14.72
2022-10-19T08:49:41.574Z,14.72
2022-10-19T08:52:16.245Z,14.82
2022-10-19T08:54:56.447Z,14.87
2022-10-19T08:57:41.271Z,14.86
2022-10-19T09:00:28.425Z,14.80
2022-10-19T09:03:13.573Z,15.09
2022-10-19T09:05:44.847Z,15.30
2022-10-19T09:08:17.448Z,15.09
2022-10-19T09:10:48.753Z,15.42
2022-10-19T09:13:21.101Z,15.53
2022-10-19T09:15:50.409Z,15.38
2022-10-19T09:18:21.421Z,15.67
2022-10-19T09:20:53.875Z,15.73
2022-10-19T09:23:27.409Z,15.64
2022-10-19T09:25:55.583Z,15.73
2022-10-19T09:28:44.792Z,15.62
2022-10-19T09:31:18.046Z,16.05
2022-10-19T09:33:50.049Z,16.01
2022-10-19T09:36:22.916Z,16.11
2022-10-19T09:38:54.190Z,16.31
2022-10-19T09:41:22.479Z,16.51
2022-10-19T09:43:54.406Z,16.60
2022-10-19T09:46:52.044Z,16.22
2022-10-19T09:49:20.198Z,16.47
2022-10-19T09:51:53.059Z,16.59
2022-10-19T09:54:26.039Z,16.71
2022-10-19T09:56:54.786Z,16.60
2022-10-19T09:59:24.208Z,16.78
2022-10-19T10:02:06.131Z,16.95
2022-10-19T10:04:36.273Z,16.97
2022-10-19T10:07:03.951Z,17.37
2022-10-19T10:09:30.472Z,17.44
2022-10-19T10:11:59.920Z,17.51
2022-10-19T10:14:33.409Z,18.13
2022-10-19T10:17:06.601Z,20.07
2022-10-19T10:19:35.973Z,22.14
2022-10-19T10:22:03.851Z,23.14
2022-10-19T10:24:32.799Z,23.08
2022-10-19T10:27:06.371Z,22.97
2022-10-19T10:29:35.794Z,23.51
2022-10-19T10:32:07.968Z,23.78
2022-10-19T10:34:50.593Z,23.69
2022-10-19T10:37:22.897Z,23.23
2022-10-19T10:39:55.143Z,23.06
2022-10-19T10:42:30.051Z,22.05
2022-10-19T10:44:57.472Z,21.05
2022-10-19T10:47:27.007Z,20.28
2022-10-19T10:50:06.383Z,20.24
2022-10-19T10:52:34.548Z,20.04
2022-10-19T10:55:21.341Z,20.06
2022-10-19T10:57:51.755Z,19.91
2022-10-19T11:00:23.976Z,19.98
2022-10-19T11:03:09.162Z,20.06
2022-10-19T11:05:46.135Z,19.79
2022-10-19T11:08:12.421Z,20.02
2022-10-19T11:11:04.556Z,19.95
2022-10-19T11:13:39.467Z,19.99
2022-10-19T11:16:33.594Z,20.12
2022-10-19T11:19:10.831Z,20.28
2022-10-19T11:21:50.146Z,20.52
2022-10-19T11:24:21.242Z,20.40
2022-10-19T11:27:17.818Z,20.45
2022-10-19T11:30:16.434Z,20.31
2022-10-19T11:33:00.145Z,20.23
2022-10-19T11:35:42.027Z,20.48
2022-10-19T11:38:33.289Z,20.44
2022-10-19T11:41:18.928Z,21.35
2022-10-19T11:44:07.352Z,21.74
2022-10-19T11:46:51.782Z,21.08
2022-10-19T11:49:39.898Z,21.22
2022-10-19T11:52:55.370Z,21.10
2022-10-19T11:55:45.866Z,21.25
2022-10-19T11:58:34.597Z,21.64
2022-10-19T12:01:21.978Z,21.76
2022-10-19T12:04:02.858Z,21.89
2022-10-19T12:06:47.970Z,22.29
2022-10-19T12:09:32.584Z,22.23
2022-10-19T12:12:25.832Z,21.94
2022-10-19T12:15:00.924Z,21.85
2022-10-19T12:17:31.379Z,22.41
2022-10-19T12:20:06.417Z,22.53
2022-10-19T12:22:37.302Z,22.96
2022-10-19T12:25:04.247Z,23.26
2022-10-19T12:27:36.214Z,23.64
2022-10-19T12:30:23.678Z,23.70
2022-10-19T12:33:05.983Z,24.15
2022-10-19T12:35:45.953Z,24.15
2022-10-19T12:38:33.446Z,24.57
2022-10-19T12:41:07.177Z,24.37
2022-10-19T12:43:43.562Z,24.48
2022-10-19T12:46:37.162Z,24.15
2022-10-19T12:49:31.206Z,24.05
2022-10-19T12:52:01.619Z,23.71
2022-10-19T12:54:40.747Z,23.77
2022-10-19T12:57:27.093Z,23.81
2022-10-19T13:00:00.463Z,23.65
2022-10-19T13:05:04.609Z,23.27
2022-10-19T13:07:35.490Z,23.08
2022-10-19T13:10:07.045Z,22.63
2022-10-19T13:12:44.219Z,22.22
2022-10-19T13:15:35.678Z,22.36
2022-10-19T13:18:03.912Z,22.29
2022-10-19T13:20:30.206Z,22.35
2022-10-19T13:22:59.665Z,22.26
2022-10-19T13:25:32.686Z,22.02
2022-10-19T13:28:12.586Z,22.05
2022-10-19T13:30:38.962Z,22.04
2022-10-19T13:33:30.136Z,21.94
2022-10-19T13:35:59.423Z,21.78
2022-10-19T13:38:26.325Z,21.74
2022-10-19T13:40:52.725Z,21.69
2022-10-19T13:43:28.492Z,21.36
2022-10-19T13:46:07.909Z,21.71
2022-10-19T13:49:11.058Z,21.57
2022-10-19T13:52:04.949Z,21.61
2022-10-19T13:54:51.534Z,21.33
2022-10-19T13:57:20.895Z,21.62
2022-10-19T14:00:19.936Z,21.61
2022-10-19T14:03:10.818Z,21.50
2022-10-19T14:05:53.603Z,21.45
2022-10-19T14:08:43.230Z,21.46
2022-10-19T14:11:17.158Z,21.36
2022-10-19T14:13:43.804Z,21.27
2022-10-19T14:16:21.888Z,21.51
2022-10-19T14:18:55.912Z,21.44
2022-10-19T14:21:36.870Z,21.41
2022-10-19T14:24:19.365Z,21.46
2022-10-19T14:26:46.595Z,21.61
2022-10-19T14:29:13.627Z,21.86
2022-10-19T14:31:40.111Z,21.65
2022-10-19T14:34:09.325Z,21.67
2022-10-19T14:36:43.880Z,21.73
2022-10-19T14:39:29.313Z,21.94
2022-10-19T14:41:55.991Z,21.72
2022-10-19T14:44:39.518Z,21.87
2022-10-19T14:47:21.774Z,22.06
2022-10-19T14:49:48.471Z,21.61
2022-10-19T14:52:32.616Z,21.75
2022-10-19T14:55:01.804Z,21.70
2022-10-19T14:57:37.195Z,21.82
2022-10-19T15:00:13.994Z,21.60
2022-10-19T15:02:45.223Z,21.73
2022-10-19T15:05:20.872Z,21.37
2022-10-19T15:07:48.232Z,21.47
2022-10-19T15:10:21.607Z,21.70
2022-10-19T15:12:50.322Z,21.51
2022-10-19T15:15:22.564Z,21.38
2022-10-19T15:17:53.885Z,21.39
2022-10-19T15:20:49.154Z,21.38
2022-10-19T15:23:43.732Z,21.14
2022-10-19T15:26:18.527Z,21.20
2022-10-19T15:28:45.388Z,21.31
2022-10-19T15:31:25.526Z,21.13
2022-10-19T15:33:58.873Z,21.30
2022-10-19T15:36:26.514Z,21.22
2022-10-19T15:39:06.413Z,21.12
2022-10-19T15:41:44.818Z,20.91
2022-10-19T15:44:39.956Z,21.07
2022-10-19T15:47:19.393Z,20.89
2022-10-19T15:49:45.784Z,20.94
2022-10-19T15:52:16.290Z,20.83
2022-10-19T15:54:42.985Z,20.77
2022-10-19T15:57:26.215Z,20.68
2022-10-19T15:59:53.698Z,20.28
2022-10-19T16:02:20.061Z,20.14
2022-10-19T16:04:46.475Z,20.40
2022-10-19T16:07:24.070Z,20.35
2022-10-19T16:09:50.382Z,20.03
2022-10-19T16:12:16.707Z,20.02
2022-10-19T16:14:43.002Z,20.13
2022-10-19T16:17:13.003Z,20.03
2022-10-19T16:19:39.333Z,19.89
2022-10-19T16:22:05.977Z,19.77
2022-10-19T16:24:32.444Z,19.77
2022-10-19T16:26:58.785Z,19.81
2022-10-19T16:29:28.234Z,19.42
2022-10-19T16:31:55.589Z,19.36
2022-10-19T16:34:21.964Z,19.26
2022-10-19T16:36:48.439Z,19.23
2022-10-19T16:39:14.761Z,19.39
2022-10-19T16:41:41.085Z,19.39
2022-10-19T16:44:07.405Z,19.36
2022-10-19T16:46:33.771Z,19.40
2022-10-19T16:49:00.127Z,19.17
2022-10-19T16:51:28.921Z,19.42
2022-10-19T16:53:57.392Z,19.41
2022-10-19T16:56:26.300Z,19.21
2022-10-19T16:58:59.594Z,19.18
2022-10-19T17:01:26.651Z,19.14
2022-10-19T17:03:53.753Z,19.25
2022-10-19T17:06:20.282Z,19.09
2022-10-19T17:11:35.706Z,19.13
2022-10-19T17:14:05.937Z,19.13
2022-10-19T17:16:33.955Z,19.11
2022-10-19T17:19:01.739Z,18.95
2022-10-19T17:21:31.744Z,18.83
2022-10-19T17:24:00.745Z,19.07
2022-10-19T17:26:29.654Z,19.15
2022-10-19T17:28:57.095Z,18.76
2022-10-19T17:31:23.676Z,19.00
2022-10-19T17:33:50.229Z,18.98
2022-10-19T17:36:20.991Z,18.91
2022-10-19T17:38:47.778Z,18.65
2022-10-19T17:41:19.775Z,18.82
2022-10-19T17:43:47.151Z,18.51
2022-10-19T17:46:16.562Z,18.70
2022-10-19T17:48:44.244Z,18.70
2022-10-19T17:51:15.958Z,18.58
2022-10-19T17:53:46.473Z,18.73
2022-10-19T17:56:16.235Z,18.53
2022-10-19T17:58:42.584Z,18.79
2022-10-19T18:01:10.139Z,18.77
2022-10-19T18:03:38.421Z,18.57
2022-10-19T18:06:10.688Z,18.97
2022-10-19T18:08:39.845Z,18.94
2022-10-19T18:11:08.919Z,18.82
2022-10-19T18:16:14.522Z,18.84
2022-10-19T18:18:43.208Z,18.94
2022-10-19T18:21:12.679Z,18.92
2022-10-19T18:23:39.912Z,18.20
2022-10-19T18:26:13.323Z,18.81
2022-10-19T18:28:40.475Z,18.19
2022-10-19T18:31:13.153Z,18.82
2022-10-19T18:33:40.357Z,18.46
2022-10-19T18:36:10.043Z,18.53
2022-10-19T18:38:37.653Z,18.34
2022-10-19T18:41:11.627Z,18.71
2022-10-19T18:43:38.794Z,18.32
2022-10-19T18:46:05.514Z,18.68
2022-10-19T18:48:31.840Z,18.38
2022-10-19T18:51:02.577Z,18.28
2022-10-19T18:53:30.057Z,18.42
2022-10-19T18:56:04.510Z,18.20
2022-10-19T18:58:31.108Z,18.40
2022-10-19T19:01:16.214Z,18.50
2022-10-19T19:03:45.365Z,18.46
2022-10-19T19:06:19.577Z,18.12
2022-10-19T19:08:52.512Z,18.36
2022-10-19T19:11:21.518Z,18.35
2022-10-19T19:13:55.166Z,18.34
2022-10-19T19:16:22.464Z,18.29
2022-10-19T19:18:54.694Z,18.23
2022-10-19T19:21:23.783Z,18.26
2022-10-19T19:23:51.559Z,18.20
2022-10-19T19:26:18.926Z,18.10
2022-10-19T19:28:49.103Z,18.17
2022-10-19T19:31:18.563Z,18.04
2022-10-19T19:33:46.034Z,17.89
2022-10-19T19:36:13.975Z,17.65
2022-10-19T19:38:40.821Z,17.97
2022-10-19T19:41:09.260Z,18.03
2022-10-19T19:43:37.526Z,18.06
2022-10-19T19:46:09.281Z,17.80
2022-10-19T19:48:37.156Z,17.77
2022-10-19T19:51:03.983Z,17.97
2022-10-19T19:53:30.519Z,17.96
2022-10-19T19:55:56.913Z,17.71
2022-10-19T19:58:23.246Z,17.77
2022-10-19T20:00:49.558Z,17.62
2022-10-19T20:03:16.248Z,17.43
2022-10-19T20:05:42.757Z,17.75
2022-10-19T20:08:09.688Z,17.79
2022-10-19T20:10:41.430Z,17.77
2022-10-19T20:13:08.109Z,17.51
2022-10-19T20:15:38.546Z,17.73
2022-10-19T20:18:05.806Z,17.56
2022-10-19T20:20:32.126Z,17.48
2022-10-19T20:22:58.439Z,17.64
2022-10-19T20:25:24.738Z,17.46
2022-10-19T20:27:51.102Z,17.49
2022-10-19T20:30:17.617Z,17.48
2022-10-19T20:32:43.963Z,17.37
2022-10-19T20:35:10.387Z,17.58
2022-10-19T20:37:36.789Z,17.44
2022-10-19T20:40:08.531Z,17.39
2022-10-19T20:42:35.865Z,17.30
2022-10-19T20:45:02.641Z,17.37
2022-10-19T20:47:29.370Z,16.73
2022-10-19T20:49:55.701Z,17.26
2022-10-19T20:52:22.085Z,17.04
2022-10-19T20:54:49.192Z,17.21
2022-10-19T20:57:15.651Z,17.25
2022-10-19T20:59:43.702Z,17.04
2022-10-19T21:02:11.183Z,17.19
2022-10-19T21:04:37.570Z,17.02
2022-10-19T21:07:04.909Z,17.13
2022-10-19T21:09:31.641Z,17.05
2022-10-19T21:11:58.212Z,17.11
2022-10-19T21:14:28.603Z,17.05
2022-10-19T21:16:57.082Z,17.00
2022-10-19T21:19:26.844Z,16.96
2022-10-19T21:21:55.996Z,17.22
2022-10-19T21:24:25.306Z,17.28
2022-10-19T21:29:23.426Z,17.07
2022-10-19T21:31:52.122Z,17.29
2022-10-19T21:34:21.948Z,17.28
2022-10-19T21:36:48.691Z,17.22
2022-10-19T21:39:15.659Z,17.07
2022-10-19T21:41:42.247Z,17.09
2022-10-19T21:44:09.629Z,16.98
2022-10-19T21:46:36.034Z,16.99
2022-10-19T21:49:02.499Z,16.86
2022-10-19T21:51:34.570Z,17.15
2022-10-19T21:54:01.504Z,16.99
2022-10-19T21:56:28.677Z,16.95
2022-10-19T21:58:55.883Z,17.14
2022-10-19T22:01:25.790Z,16.98
2022-10-19T22:04:00.095Z,17.14
2022-10-19T22:06:29.157Z,17.09
2022-10-19T22:08:56.348Z,17.00
2022-10-19T22:11:23.090Z,16.81
2022-10-19T22:13:52.805Z,17.06
2022-10-19T22:16:20.586Z,16.96
2022-10-19T22:18:47.674Z,17.15
2022-10-19T22:21:18.349Z,17.13
2022-10-19T22:23:45.129Z,16.94
2022-10-19T22:26:23.645Z,16.97
2022-10-19T22:28:50.374Z,17.07
2022-10-19T22:31:16.957Z,16.78
2022-10-19T22:33:43.317Z,16.75
2022-10-19T22:36:11.759Z,16.96
2022-10-19T22:38:38.226Z,16.82
2022-10-19T22:41:04.574Z,16.92
2022-10-19T22:43:31.027Z,16.87
2022-10-19T22:45:57.358Z,16.25
2022-10-19T22:48:23.823Z,16.76
2022-10-19T22:50:52.975Z,16.92
2022-10-19T22:53:19.464Z,16.94
2022-10-19T22:55:45.829Z,16.81
2022-10-19T23:00:43.606Z,16.90
2022-10-19T23:03:09.967Z,16.70
2022-10-19T23:05:36.366Z,16.75
2022-10-19T23:08:02.828Z,16.62
2022-10-19T23:10:29.193Z,16.55
2022-10-19T23:12:55.559Z,16.56
2022-10-19T23:15:22.063Z,16.88
2022-10-19T23:17:48.413Z,16.63
2022-10-19T23:20:15.005Z,16.89
2022-10-19T23:22:41.446Z,16.60
2022-10-19T23:25:08.632Z,16.78
2022-10-19T23:27:35.308Z,16.67
2022-10-19T23:30:02.653Z,16.84
2022-10-19T23:32:28.999Z,16.67
2022-10-19T23:34:55.335Z,16.55
2022-10-19T23:37:21.714Z,16.55
2022-10-19T23:39:48.018Z,16.74
2022-10-19T23:42:14.413Z,16.59
2022-10-19T23:44:40.723Z,16.61
2022-10-19T23:47:07.025Z,16.58
2022-10-19T23:49:33.337Z,16.69
2022-10-19T23:51:59.954Z,15.94
2022-10-19T23:54:26.397Z,16.64
2022-10-19T23:56:52.697Z,16.55
2022-10-19T23:59:18.991Z,16.62
